createdAt,value
2019-05-01T00:01:39.495Z,15.75
2019-05-01T00:04:30.295Z,14.87
2019-05-01T00:07:17.959Z,13.50
2019-05-01T00:09:50.798Z,13.32
2019-05-01T00:12:23.539Z,13.18
2019-05-01T00:14:56.516Z,13.55
2019-05-01T00:17:29.686Z,14.13
2019-05-01T00:20:02.756Z,14.85
2019-05-01T00:22:35.843Z,13.38
2019-05-01T00:25:08.669Z,14.45
2019-05-01T00:27:41.447Z,12.28
2019-05-01T00:32:47.218Z,14.10
2019-05-01T00:35:19.742Z,16.02
2019-05-01T00:37:52.963Z,19.87
2019-05-01T00:40:25.617Z,17.60
2019-05-01T00:43:03.926Z,16.62
2019-05-01T00:45:36.899Z,15.50
2019-05-01T00:48:10.098Z,15.98
2019-05-01T00:53:14.809Z,14.20
2019-05-01T00:55:58.318Z,12.33
2019-05-01T01:01:28.836Z,13.48
2019-05-01T01:04:01.834Z,12.20
2019-05-01T01:09:08.191Z,14.55
2019-05-01T01:11:42.046Z,15.78
2019-05-01T01:16:47.252Z,16.35
2019-05-01T01:19:20.503Z,15.38
2019-05-01T01:21:54.169Z,16.82
2019-05-01T01:24:27.397Z,16.25
2019-05-01T01:27:01.686Z,16.75
2019-05-01T01:29:35.314Z,16.82
2019-05-01T01:32:09.465Z,15.88
2019-05-01T01:34:43.601Z,13.60
2019-05-01T01:37:17.728Z,13.88
2019-05-01T01:39:50.436Z,15.43
2019-05-01T01:42:23.247Z,14.85
2019-05-01T01:44:56.979Z,11.48
2019-05-01T01:47:29.724Z,14.60
2019-05-01T01:52:35.340Z,9.53
2019-05-01T01:55:09.489Z,10.88
2019-05-01T01:57:42.190Z,11.63
2019-05-01T02:02:50.647Z,8.05
2019-05-01T02:05:27.476Z,11.30
2019-05-01T02:08:01.602Z,11.10
2019-05-01T02:10:42.997Z,11.57
2019-05-01T02:13:11.073Z,12.10
2019-05-01T02:18:15.860Z,12.33
2019-05-01T02:20:48.654Z,13.20
2019-05-01T02:23:21.583Z,12.40
2019-05-01T02:25:55.627Z,13.53
2019-05-01T02:28:33.286Z,13.35
2019-05-01T02:31:08.302Z,11.53
2019-05-01T02:33:43.057Z,12.13
2019-05-01T02:36:19.197Z,13.15
2019-05-01T02:38:52.831Z,12.90
2019-05-01T02:41:31.003Z,11.83
2019-05-01T02:44:09.043Z,10.75
2019-05-01T02:46:45.711Z,8.18
2019-05-01T02:49:39.037Z,7.40
2019-05-01T02:52:14.844Z,11.15
2019-05-01T02:54:49.807Z,11.83
2019-05-01T02:57:23.562Z,12.73
2019-05-01T02:59:57.792Z,14.05
2019-05-01T03:02:31.492Z,5.45
2019-05-01T03:05:04.573Z,9.93
2019-05-01T03:07:39.439Z,14.50
2019-05-01T03:10:12.368Z,10.60
2019-05-01T03:12:47.595Z,11.95
2019-05-01T03:15:33.291Z,10.38
2019-05-01T03:18:17.242Z,11.50
2019-05-01T03:21:00.866Z,11.10
2019-05-01T03:23:35.416Z,15.00
2019-05-01T03:26:08.131Z,13.62
2019-05-01T03:28:41.269Z,11.25
2019-05-01T03:31:14.302Z,13.45
2019-05-01T03:36:19.922Z,15.32
2019-05-01T03:38:52.807Z,15.60
2019-05-01T03:41:26.140Z,17.05
2019-05-01T03:43:59.334Z,18.70
2019-05-01T03:46:32.530Z,16.23
2019-05-01T03:51:36.624Z,17.75
2019-05-01T03:54:28.479Z,18.85
2019-05-01T03:57:01.227Z,19.23
2019-05-01T03:59:34.178Z,18.60
2019-05-01T04:04:59.724Z,19.98
2019-05-01T04:10:06.836Z,19.52
2019-05-01T04:12:39.862Z,19.90
2019-05-01T04:15:13.278Z,20.08
2019-05-01T04:17:47.820Z,20.05
2019-05-01T04:20:21.568Z,20.10
2019-05-01T04:22:54.714Z,21.65
2019-05-01T04:25:28.014Z,21.23
2019-05-01T04:28:02.162Z,21.00
2019-05-01T04:30:39.616Z,18.07
2019-05-01T04:33:17.565Z,19.52
2019-05-01T04:35:52.423Z,19.30
2019-05-01T04:38:25.596Z,19.50
2019-05-01T04:40:58.207Z,19.82
2019-05-01T04:43:32.019Z,20.00
2019-05-01T04:46:10.446Z,20.08
2019-05-01T04:48:43.493Z,19.02
2019-05-01T04:53:48.640Z,17.87
2019-05-01T04:56:21.479Z,21.30
2019-05-01T04:58:54.102Z,20.48
2019-05-01T05:01:29.734Z,22.22
2019-05-01T05:04:02.398Z,22.58
2019-05-01T05:06:34.889Z,22.02
2019-05-01T05:09:08.351Z,21.48
2019-05-01T05:11:58.494Z,23.55
2019-05-01T05:14:32.277Z,22.35
2019-05-01T05:17:09.931Z,22.87
2019-05-01T05:19:42.812Z,21.30
2019-05-01T05:22:16.645Z,18.07
2019-05-01T05:24:49.755Z,21.00
2019-05-01T05:27:23.670Z,18.80
2019-05-01T05:29:58.368Z,19.75
2019-05-01T05:32:31.760Z,17.35
2019-05-01T05:37:56.712Z,13.38
2019-05-01T05:40:32.232Z,20.05
2019-05-01T05:43:05.652Z,17.80
2019-05-01T05:45:38.351Z,18.57
2019-05-01T05:48:11.447Z,16.48
2019-05-01T05:51:04.145Z,18.85
2019-05-01T05:53:40.377Z,20.32
2019-05-01T05:56:16.579Z,20.80
2019-05-01T05:58:52.474Z,20.62
2019-05-01T06:01:46.530Z,19.92
2019-05-01T06:04:27.873Z,19.60
2019-05-01T06:07:11.457Z,19.57
2019-05-01T06:12:20.921Z,15.70
2019-05-01T06:14:57.234Z,13.43
2019-05-01T06:17:40.832Z,14.95
2019-05-01T06:20:31.412Z,16.62
2019-05-01T06:23:06.188Z,12.90
2019-05-01T06:25:45.652Z,15.03
2019-05-01T06:28:24.819Z,13.48
2019-05-01T06:30:57.011Z,15.15
2019-05-01T06:33:29.869Z,12.95
2019-05-01T06:36:02.239Z,13.35
2019-05-01T06:38:36.249Z,14.53
2019-05-01T06:41:09.096Z,13.85
2019-05-01T06:43:49.143Z,12.63
2019-05-01T06:46:27.402Z,13.28
2019-05-01T06:49:15.371Z,15.25
2019-05-01T06:51:53.173Z,14.93
2019-05-01T06:54:24.801Z,13.98
2019-05-01T06:56:58.500Z,16.80
2019-05-01T06:59:33.416Z,14.87
2019-05-01T07:02:07.409Z,16.77
2019-05-01T07:04:40.914Z,17.95
2019-05-01T07:07:25.040Z,16.97
2019-05-01T07:09:49.378Z,17.55
2019-05-01T07:12:28.364Z,18.50
2019-05-01T07:14:58.776Z,17.25
2019-05-01T07:17:31.624Z,16.25
2019-05-01T07:20:11.894Z,15.58
2019-05-01T07:22:44.123Z,19.20
2019-05-01T07:25:16.959Z,21.55
2019-05-01T07:27:53.831Z,22.00
2019-05-01T07:30:28.609Z,22.62
2019-05-01T07:33:01.378Z,20.82
2019-05-01T07:35:36.801Z,21.00
2019-05-01T07:38:08.157Z,22.30
2019-05-01T07:40:44.480Z,24.12
2019-05-01T07:43:27.077Z,21.97
2019-05-01T07:46:02.370Z,23.15
2019-05-01T07:48:41.450Z,20.80
2019-05-01T07:51:12.134Z,23.60
2019-05-01T07:53:45.367Z,24.63
2019-05-01T07:56:18.401Z,25.90
2019-05-01T08:01:28.275Z,22.63
2019-05-01T08:04:02.642Z,23.92
2019-05-01T08:06:35.601Z,25.30
2019-05-01T08:11:44.021Z,22.40
2019-05-01T08:14:16.460Z,24.95
2019-05-01T08:16:49.003Z,25.25
2019-05-01T08:19:22.770Z,24.57
2019-05-01T08:22:03.194Z,23.02
2019-05-01T08:24:36.740Z,23.40
2019-05-01T08:27:10.780Z,23.95
2019-05-01T08:30:00.942Z,23.55
2019-05-01T08:32:39.254Z,25.85
2019-05-01T08:35:16.540Z,24.25
2019-05-01T08:37:49.253Z,26.02
2019-05-01T08:40:21.733Z,25.08
2019-05-01T08:42:54.223Z,25.90
2019-05-01T08:45:43.547Z,24.92
2019-05-01T08:48:23.601Z,24.77
2019-05-01T08:50:59.110Z,24.40
2019-05-01T08:53:30.505Z,24.70
2019-05-01T08:58:34.553Z,22.10
2019-05-01T09:01:10.822Z,22.05
2019-05-01T09:03:41.331Z,23.18
2019-05-01T09:06:14.267Z,24.12
2019-05-01T09:08:47.467Z,25.10
2019-05-01T09:11:20.855Z,22.75
2019-05-01T09:13:58.885Z,26.33
2019-05-01T09:16:30.188Z,24.75
2019-05-01T09:19:03.481Z,24.70
2019-05-01T09:21:38.001Z,24.75
2019-05-01T09:24:11.473Z,27.02
2019-05-01T09:26:50.112Z,21.90
2019-05-01T09:29:26.296Z,23.35
2019-05-01T09:31:59.909Z,23.32
2019-05-01T09:34:32.976Z,23.32
2019-05-01T09:39:36.989Z,22.35
2019-05-01T09:42:10.051Z,20.95
2019-05-01T09:47:15.599Z,21.80
2019-05-01T09:49:48.873Z,19.73
2019-05-01T09:52:29.240Z,19.65
2019-05-01T09:55:03.446Z,18.80
2019-05-01T09:57:40.754Z,16.07
2019-05-01T10:00:11.985Z,19.23
2019-05-01T10:02:44.428Z,19.40
2019-05-01T10:05:28.415Z,20.00
2019-05-01T10:07:51.217Z,18.45
2019-05-01T10:10:24.803Z,18.17
2019-05-01T10:12:58.359Z,18.85
2019-05-01T10:15:31.606Z,19.82
2019-05-01T10:20:35.476Z,18.98
2019-05-01T10:23:12.895Z,20.15
2019-05-01T10:25:48.048Z,19.30
2019-05-01T10:28:34.777Z,19.90
2019-05-01T10:31:18.011Z,20.40
2019-05-01T10:33:51.926Z,20.65
2019-05-01T10:36:32.043Z,20.17
2019-05-01T10:39:07.025Z,20.00
2019-05-01T10:41:41.320Z,23.40
2019-05-01T10:44:14.130Z,19.73
2019-05-01T10:46:46.574Z,20.05
2019-05-01T10:49:19.457Z,21.60
2019-05-01T10:51:52.626Z,19.15
2019-05-01T10:54:25.183Z,20.48
2019-05-01T10:56:58.851Z,20.05
2019-05-01T10:59:32.765Z,20.75
2019-05-01T11:02:07.176Z,20.85
2019-05-01T11:04:39.666Z,19.90
2019-05-01T11:07:12.332Z,21.42
2019-05-01T11:09:45.365Z,21.10
2019-05-01T11:12:18.756Z,21.80
2019-05-01T11:17:22.880Z,20.97
2019-05-01T11:19:55.611Z,22.25
2019-05-01T11:22:28.025Z,22.30
2019-05-01T11:25:00.810Z,22.15
2019-05-01T11:27:33.432Z,22.42
2019-05-01T11:30:07.081Z,21.57
2019-05-01T11:32:42.759Z,21.42
2019-05-01T11:35:26.296Z,21.75
2019-05-01T11:38:16.092Z,20.48
2019-05-01T11:40:50.174Z,21.82
2019-05-01T11:43:23.373Z,21.75
2019-05-01T11:45:55.875Z,22.37
2019-05-01T11:48:30.284Z,21.70
2019-05-01T11:51:02.431Z,22.98
2019-05-01T11:53:34.963Z,24.82
2019-05-01T11:56:08.479Z,24.77
2019-05-01T11:58:41.400Z,25.17
2019-05-01T12:01:15.634Z,26.05
2019-05-01T12:03:48.918Z,25.50
2019-05-01T12:06:23.235Z,23.60
2019-05-01T12:08:56.194Z,24.47
2019-05-01T12:11:30.024Z,24.77
2019-05-01T12:14:03.042Z,24.35
2019-05-01T12:16:55.842Z,23.75
2019-05-01T12:19:30.065Z,24.65
2019-05-01T12:22:03.043Z,26.27
2019-05-01T12:27:13.429Z,23.55
2019-05-01T12:29:45.939Z,22.60
2019-05-01T12:32:18.718Z,23.12
2019-05-01T12:34:51.528Z,23.15
2019-05-01T12:37:31.620Z,22.82
2019-05-01T12:40:04.098Z,21.00
2019-05-01T12:42:37.277Z,20.57
2019-05-01T12:45:11.659Z,22.02
2019-05-01T12:47:49.149Z,23.00
2019-05-01T12:50:21.928Z,21.62
2019-05-01T12:53:14.167Z,22.30
2019-05-01T12:58:38.078Z,22.32
2019-05-01T13:01:10.709Z,19.98
2019-05-01T13:03:43.587Z,19.82
2019-05-01T13:06:16.803Z,19.57
2019-05-01T13:08:49.935Z,19.70
2019-05-01T13:11:23.232Z,21.15
2019-05-01T13:13:55.834Z,17.87
2019-05-01T13:16:28.783Z,18.75
2019-05-01T13:19:04.318Z,18.45
2019-05-01T13:21:36.880Z,18.73
2019-05-01T13:24:11.095Z,19.92
2019-05-01T13:26:47.992Z,19.57
2019-05-01T13:29:34.118Z,18.37
2019-05-01T13:32:14.701Z,21.48
2019-05-01T13:34:47.908Z,20.25
2019-05-01T13:37:21.283Z,19.07
2019-05-01T13:39:54.558Z,19.70
2019-05-01T13:42:27.463Z,20.32
2019-05-01T13:45:00.208Z,20.70
2019-05-01T13:47:32.754Z,20.00
2019-05-01T13:50:06.677Z,20.23
2019-05-01T13:52:42.005Z,21.00
2019-05-01T13:55:16.580Z,19.80
2019-05-01T13:57:50.345Z,19.77
2019-05-01T14:00:27.390Z,20.85
2019-05-01T14:03:00.226Z,20.85
2019-05-01T14:08:05.276Z,20.12
2019-05-01T14:10:37.870Z,19.57
2019-05-01T14:13:10.779Z,20.00
2019-05-01T14:15:43.440Z,19.85
2019-05-01T14:18:15.854Z,20.12
2019-05-01T14:20:53.181Z,19.73
2019-05-01T14:23:33.575Z,20.48
2019-05-01T14:26:07.315Z,19.87
2019-05-01T14:28:40.520Z,21.07
2019-05-01T14:31:13.346Z,21.77
2019-05-01T14:33:46.142Z,23.67
2019-05-01T14:36:20.126Z,22.80
2019-05-01T14:38:52.491Z,22.65
2019-05-01T14:41:29.248Z,21.95
2019-05-01T14:44:02.923Z,22.62
2019-05-01T14:46:35.803Z,23.65
2019-05-01T14:49:08.711Z,23.98
2019-05-01T14:51:42.521Z,22.35
2019-05-01T14:54:15.586Z,22.07
2019-05-01T14:59:19.736Z,23.27
2019-05-01T15:01:52.670Z,23.45
2019-05-01T15:06:56.882Z,23.75
2019-05-01T15:09:29.432Z,23.80
2019-05-01T15:12:02.523Z,23.95
2019-05-01T15:14:39.847Z,23.73
2019-05-01T15:17:29.740Z,23.35
2019-05-01T15:20:03.730Z,23.20
2019-05-01T15:22:39.459Z,24.67
2019-05-01T15:25:15.762Z,23.77
2019-05-01T15:27:48.282Z,25.00
2019-05-01T15:30:21.274Z,23.87
2019-05-01T15:32:54.123Z,25.17
2019-05-01T15:35:26.805Z,24.85
2019-05-01T15:37:59.432Z,25.80
2019-05-01T15:40:36.586Z,25.50
2019-05-01T15:43:25.506Z,24.87
2019-05-01T15:45:58.680Z,24.98
2019-05-01T15:48:31.641Z,25.05
2019-05-01T15:51:05.055Z,26.45
2019-05-01T15:53:38.310Z,26.37
2019-05-01T15:56:11.642Z,25.52
2019-05-01T16:01:20.060Z,26.93
2019-05-01T16:03:52.455Z,29.12
2019-05-01T16:06:25.008Z,28.30
2019-05-01T16:08:57.823Z,28.20
2019-05-01T16:11:31.671Z,29.37
2019-05-01T16:14:04.168Z,29.15
2019-05-01T16:16:37.012Z,29.32
2019-05-01T16:19:09.805Z,29.18
2019-05-01T16:21:42.535Z,30.97
2019-05-01T16:24:14.960Z,30.88
2019-05-01T16:26:47.426Z,31.25
2019-05-01T16:29:21.083Z,33.42
2019-05-01T16:31:53.642Z,34.35
2019-05-01T16:34:26.039Z,32.58
2019-05-01T16:36:58.897Z,33.83
2019-05-01T16:39:32.982Z,33.98
2019-05-01T16:42:05.755Z,33.28
2019-05-01T16:44:38.611Z,33.90
2019-05-01T16:49:44.451Z,32.05
2019-05-01T16:52:24.674Z,33.53
2019-05-01T16:54:59.447Z,35.05
2019-05-01T16:57:31.055Z,38.17
2019-05-01T17:00:04.814Z,36.35
2019-05-01T17:02:43.131Z,34.43
2019-05-01T17:05:16.903Z,35.05
2019-05-01T17:07:54.365Z,34.78
2019-05-01T17:10:32.234Z,33.10
2019-05-01T17:13:04.847Z,37.28
2019-05-01T17:15:39.163Z,34.78
2019-05-01T17:18:11.889Z,35.73
2019-05-01T17:20:44.934Z,32.08
2019-05-01T17:23:17.416Z,29.60
2019-05-01T17:25:50.315Z,26.87
2019-05-01T17:28:22.682Z,31.42
2019-05-01T17:30:56.476Z,33.50
2019-05-01T17:33:29.167Z,34.23
2019-05-01T17:36:02.980Z,32.33
2019-05-01T17:38:48.482Z,27.30
2019-05-01T17:41:10.361Z,30.20
2019-05-01T17:43:44.778Z,33.80
2019-05-01T17:46:17.397Z,39.92
2019-05-01T17:48:50.207Z,35.43
2019-05-01T17:51:22.678Z,39.58
2019-05-01T17:53:55.117Z,21.35
2019-05-01T17:56:28.601Z,40.20
2019-05-01T17:59:00.980Z,39.85
2019-05-01T18:01:51.482Z,40.60
2019-05-01T18:04:26.933Z,38.58
2019-05-01T18:07:00.762Z,38.00
2019-05-01T18:09:33.117Z,38.45
2019-05-01T18:12:05.948Z,39.08
2019-05-01T18:14:38.626Z,38.70
2019-05-01T18:17:11.542Z,38.28
2019-05-01T18:19:44.690Z,38.60
2019-05-01T18:22:37.157Z,38.25
2019-05-01T18:25:10.723Z,39.18
2019-05-01T18:27:44.850Z,39.83
2019-05-01T18:30:20.491Z,40.48
2019-05-01T18:32:52.597Z,41.10
2019-05-01T18:35:25.630Z,40.98
2019-05-01T18:38:12.995Z,42.45
2019-05-01T18:40:47.194Z,42.50
2019-05-01T18:43:26.960Z,44.13
2019-05-01T18:46:01.499Z,43.30
2019-05-01T18:48:35.501Z,44.23
2019-05-01T18:51:10.201Z,45.60
2019-05-01T18:53:50.366Z,46.85
2019-05-01T18:56:24.372Z,43.98
2019-05-01T18:58:58.291Z,43.08
2019-05-01T19:01:32.142Z,45.73
2019-05-01T19:04:06.426Z,44.75
2019-05-01T19:06:43.548Z,43.78
2019-05-01T19:09:28.776Z,49.83
2019-05-01T19:11:52.464Z,50.98
2019-05-01T19:14:30.823Z,50.58
2019-05-01T19:17:05.055Z,48.38
2019-05-01T19:19:41.195Z,47.00
2019-05-01T19:22:14.648Z,49.25
2019-05-01T19:24:48.948Z,42.65
2019-05-01T19:27:24.276Z,40.75
2019-05-01T19:29:58.217Z,28.57
2019-05-01T19:32:32.442Z,34.88
2019-05-01T19:35:07.610Z,46.60
2019-05-01T19:37:42.028Z,47.90
2019-05-01T19:40:16.049Z,48.02
2019-05-01T19:42:53.662Z,49.85
2019-05-01T19:45:25.419Z,48.83
2019-05-01T19:47:59.376Z,50.23
2019-05-01T19:50:33.225Z,54.15
2019-05-01T19:53:10.146Z,54.50
2019-05-01T19:55:44.887Z,52.98
2019-05-01T19:58:18.826Z,51.40
2019-05-01T20:00:54.587Z,49.70
2019-05-01T20:03:30.692Z,53.15
2019-05-01T20:06:06.186Z,54.98
2019-05-01T20:08:40.015Z,55.12
2019-05-01T20:11:27.986Z,53.95
2019-05-01T20:14:06.016Z,52.67
2019-05-01T20:16:38.473Z,50.40
2019-05-01T20:19:12.683Z,51.80
2019-05-01T20:21:46.388Z,53.48
2019-05-01T20:24:20.867Z,56.10
2019-05-01T20:27:06.708Z,54.70
2019-05-01T20:29:40.920Z,49.75
2019-05-01T20:32:14.971Z,50.40
2019-05-01T20:34:52.787Z,50.17
2019-05-01T20:37:24.399Z,48.87
2019-05-01T20:40:10.453Z,50.95
2019-05-01T20:42:35.822Z,53.92
2019-05-01T20:45:17.370Z,50.20
2019-05-01T20:47:46.128Z,49.80
2019-05-01T20:50:20.027Z,51.10
2019-05-01T20:52:53.698Z,50.85
2019-05-01T20:55:27.797Z,53.38
2019-05-01T20:58:15.223Z,52.15
2019-05-01T21:00:53.579Z,49.65
2019-05-01T21:03:26.721Z,51.33
2019-05-01T21:06:19.544Z,50.33
2019-05-01T21:08:54.719Z,53.00
2019-05-01T21:11:29.805Z,48.78
2019-05-01T21:14:16.062Z,51.42
2019-05-01T21:16:40.074Z,51.80
2019-05-01T21:19:13.953Z,52.70
2019-05-01T21:21:48.985Z,51.02
2019-05-01T21:24:24.023Z,48.92
2019-05-01T21:26:58.027Z,51.30
2019-05-01T21:29:31.936Z,50.33
2019-05-01T21:32:06.340Z,49.88
2019-05-01T21:34:39.959Z,51.75
2019-05-01T21:37:13.669Z,50.58
2019-05-01T21:39:47.641Z,54.45
2019-05-01T21:42:24.321Z,51.75
2019-05-01T21:44:57.235Z,50.10
2019-05-01T21:47:33.419Z,53.38
2019-05-01T21:50:07.696Z,53.55
2019-05-01T21:52:43.615Z,54.88
2019-05-01T21:55:16.604Z,50.92
2019-05-01T21:57:52.625Z,50.60
2019-05-01T22:00:28.991Z,50.38
2019-05-01T22:03:04.607Z,51.15
2019-05-01T22:05:39.680Z,51.13
2019-05-01T22:08:14.631Z,53.90
2019-05-01T22:10:52.111Z,52.17
2019-05-01T22:13:24.397Z,55.05
2019-05-01T22:16:01.381Z,48.13
2019-05-01T22:18:54.882Z,50.90
2019-05-01T22:21:30.067Z,50.17
2019-05-01T22:24:05.410Z,51.65
2019-05-01T22:26:46.379Z,52.15
2019-05-01T22:29:21.604Z,50.85
2019-05-01T22:32:09.157Z,44.60
2019-05-01T22:34:50.129Z,43.10
2019-05-01T22:37:24.122Z,32.28
2019-05-01T22:39:59.280Z,38.00
2019-05-01T22:42:33.201Z,39.88
2019-05-01T22:45:08.967Z,46.13
2019-05-01T22:47:46.077Z,48.65
2019-05-01T22:50:20.199Z,51.00
2019-05-01T22:52:57.881Z,47.55
2019-05-01T22:55:32.308Z,48.63
2019-05-01T22:58:05.944Z,47.45
2019-05-01T23:00:49.714Z,46.13
2019-05-01T23:03:25.192Z,34.63
2019-05-01T23:06:01.941Z,45.28
2019-05-01T23:08:34.521Z,48.68
2019-05-01T23:11:19.829Z,44.98
2019-05-01T23:13:45.935Z,47.58
2019-05-01T23:16:21.080Z,44.73
2019-05-01T23:18:56.093Z,44.08
2019-05-01T23:21:30.506Z,45.35
2019-05-01T23:24:05.186Z,46.83
2019-05-01T23:26:40.371Z,46.53
2019-05-01T23:29:35.353Z,48.70
2019-05-01T23:32:09.065Z,48.38
2019-05-01T23:34:43.709Z,44.40
2019-05-01T23:37:17.777Z,44.30
2019-05-01T23:39:52.844Z,43.80
2019-05-01T23:42:26.724Z,42.30
2019-05-01T23:45:00.652Z,41.88
2019-05-01T23:47:34.187Z,43.35
2019-05-01T23:50:09.704Z,41.70
2019-05-01T23:52:44.783Z,40.03
2019-05-01T23:55:18.796Z,39.13
2019-05-01T23:58:15.076Z,42.35
